Palm Coast — WDC9152 — position and weather

sailwx.info

Track history (hours):
 
Tides and Currents Weather Stations Pressure Air Temp Water Temp Dewpoint Dewpoint Depression Visibility Wind Speed Wind Dir Waves Ship Positions

Palm Coast

Owner: Dann Marine Towing, LC, Chesapeake City, MD. More information available from US FCC via Universal Licensing System and Coast Guard Vessel Documentation Center.

Last reported at 2018-Jul-22 06:58 UTC. Time now 2018-Jul-22 06:59 UTC.
Position N 39°16' W 076°33'.

; draft 3 m.

Type: Tug. MMSI: 367098270.

Date/timePositionNaut miles runAvg speedWind from/ knotsBaromVisibWave heightAir tempDewpointWater temp
2018-Jul-22 06:58N 39°16' W 076°33'0 0.0
2018-Jul-22 06:28N 39°16' W 076°33'0 0.0
2018-Jul-22 05:58N 39°16' W 076°33'0 0.0
2018-Jul-22 05:28N 39°16' W 076°33'0 0.0
2018-Jul-22 04:58N 39°16' W 076°33'0 0.0
2018-Jul-22 04:28N 39°16' W 076°33'0 0.0
2018-Jul-22 03:58N 39°16' W 076°33'0 0.0
2018-Jul-22 03:28N 39°16' W 076°33'0 0.0
2018-Jul-22 02:58N 39°16' W 076°33'0 0.0
2018-Jul-22 02:28N 39°16' W 076°33'0 0.0
2018-Jul-22 01:58N 39°16' W 076°33'0 0.0
2018-Jul-22 01:28N 39°16' W 076°33'0 0.0
2018-Jul-22 00:58N 39°16' W 076°33'0 0.0
2018-Jul-22 00:28N 39°16' W 076°33'0 0.0
2018-Jul-21 23:58N 39°16' W 076°33'0 0.0
2018-Jul-21 23:28N 39°16' W 076°33'0 0.0
2018-Jul-21 22:58N 39°16' W 076°33'0 0.0
2018-Jul-21 22:28N 39°16' W 076°33'0 0.0
2018-Jul-21 21:58N 39°16' W 076°33'0 0.0
2018-Jul-21 21:22N 39°16' W 076°33'0 0.0
2018-Jul-21 20:58N 39°16' W 076°33'0 0.0
2018-Jul-21 20:28N 39°16' W 076°33'0 0.0
2018-Jul-21 19:58N 39°16' W 076°33'0 0.0
2018-Jul-21 19:28N 39°16' W 076°33'0 0.0
2018-Jul-21 18:58N 39°16' W 076°33'0 0.0
2018-Jul-21 18:28N 39°16' W 076°33'0 0.0
2018-Jul-21 17:58N 39°16' W 076°33'0 0.0
2018-Jul-21 17:28N 39°16' W 076°33'0 0.0
2018-Jul-21 16:58N 39°16' W 076°33'0 0.0
2018-Jul-21 16:28N 39°16' W 076°33'0 0.0
2018-Jul-21 15:58N 39°16' W 076°33'0 0.0
2018-Jul-21 15:28N 39°16' W 076°33'0 0.0
2018-Jul-21 14:58N 39°16' W 076°33'0 0.0
2018-Jul-21 14:28N 39°16' W 076°33'0 0.0
2018-Jul-21 13:58N 39°16' W 076°33'0 0.0
2018-Jul-21 13:28N 39°16' W 076°33'0 0.0
2018-Jul-21 12:58N 39°16' W 076°33'0 0.0
2018-Jul-21 12:25N 39°16' W 076°33'0 0.0
2018-Jul-21 11:58N 39°16' W 076°33'0 0.0
2018-Jul-21 11:29N 39°16' W 076°33'3 5.8
2018-Jul-21 11:00N 39°13' W 076°32'4 8.5
2018-Jul-21 10:30N 39°11' W 076°27'4 8.2
2018-Jul-21 10:00N 39°13' W 076°22'34 7.3
2018-Jul-21 05:19N 39°32' W 075°46'2 7.6
2018-Jul-21 05:00N 39°33' W 075°43'4 7.9
2018-Jul-21 04:30N 39°33' W 075°38'4 7.8
2018-Jul-21 04:00N 39°34' W 075°33'5 8.9
2018-Jul-21 03:28N 39°39' W 075°33'510.4
2018-Jul-21 03:00N 39°43' W 075°30'5 9.6
2018-Jul-21 02:28N 39°48' W 075°26'4 9.6
2018-Jul-21 02:00N 39°50' W 075°22'4 8.2
2018-Jul-21 01:30N 39°51' W 075°16'4 7.9
2018-Jul-21 01:00N 39°53' W 075°12'3 6.6
2018-Jul-21 00:31N 39°54' W 075°08'3 6.7
2018-Jul-21 00:01N 39°57' W 075°08'3 6.5
2018-Jul-20 23:31N 39°59' W 075°04'3 6.1
2018-Jul-20 23:00N 40°01' W 075°02'3 6.4
2018-Jul-20 22:30N 40°03' W 074°58'3 6.3
2018-Jul-20 22:00N 40°04' W 074°54'2 0.2
2018-Jul-20 12:04N 40°05' W 074°52'0 0.2
2018-Jul-20 12:00N 40°05' W 074°52'2 3.3
2018-Jul-20 11:30N 40°04' W 074°54'3 6.8
2018-Jul-20 11:00N 40°03' W 074°58'4 7.8
2018-Jul-20 10:30N 40°01' W 075°03'4 8.4
2018-Jul-20 10:00N 39°58' W 075°07'4 8.5
2018-Jul-20 09:30N 39°54' W 075°08'4 8.2
2018-Jul-20 09:00N 39°52' W 075°13'4 9.0
2018-Jul-20 08:30N 39°51' W 075°18'4 9.0
2018-Jul-20 08:00N 39°49' W 075°24'4 8.6
2018-Jul-20 07:30N 39°46' W 075°28'4 8.3
2018-Jul-20 07:00N 39°43' W 075°31'4 7.9
2018-Jul-20 06:30N 39°39' W 075°33'3 6.8
2018-Jul-20 06:00N 39°36' W 075°34'3 5.3
2018-Jul-20 05:30N 39°33' W 075°36'5 9.0
2018-Jul-20 05:00N 39°33' W 075°41'5 9.0
2018-Jul-20 04:30N 39°32' W 075°47'4 8.3
2018-Jul-20 04:00N 39°31' W 075°53'4 7.7
2018-Jul-20 03:30N 39°29' W 075°57'4 7.6
2018-Jul-20 03:00N 39°26' W 076°00'4 7.4
2018-Jul-20 02:30N 39°24' W 076°03'4 7.4
2018-Jul-20 01:58N 39°22' W 076°08'3 7.0
2018-Jul-20 01:30N 39°20' W 076°12'14 6.8
2018-Jul-19 23:26N 39°11' W 076°26'3 7.2
2018-Jul-19 23:00N 39°12' W 076°30'4 7.5
2018-Jul-19 22:30N 39°14' W 076°33'1 2.4
2018-Jul-19 22:00N 39°15' W 076°34'0 0.0
2018-Jul-19 21:30N 39°15' W 076°34'0 0.0
2018-Jul-19 21:00N 39°15' W 076°34'0 0.0
2018-Jul-19 20:30N 39°15' W 076°34'0 0.1
2018-Jul-19 20:00N 39°15' W 076°34'0 0.0
2018-Jul-19 19:30N 39°15' W 076°34'0 0.0
2018-Jul-19 19:00N 39°15' W 076°34'0 0.0
2018-Jul-19 18:30N 39°15' W 076°34'0 0.0
2018-Jul-19 18:00N 39°15' W 076°34'0 0.0
2018-Jul-19 17:30N 39°15' W 076°34'0 0.0
2018-Jul-19 17:00N 39°15' W 076°34'0 0.0
2018-Jul-19 16:30N 39°15' W 076°34'0 0.0
2018-Jul-19 16:00N 39°15' W 076°34'0 0.0
2018-Jul-19 15:30N 39°15' W 076°34'0 0.0
2018-Jul-19 15:00N 39°15' W 076°34'0 0.0
2018-Jul-19 14:00N 39°15' W 076°34'0 0.0
2018-Jul-19 13:30N 39°15' W 076°34'0 0.0
2018-Jul-19 13:00N 39°15' W 076°34'0 0.0
2018-Jul-19 12:30N 39°15' W 076°34'0 0.0
2018-Jul-19 12:00N 39°15' W 076°34'0 0.0
2018-Jul-19 11:30N 39°15' W 076°34'0 0.0
2018-Jul-19 11:00N 39°15' W 076°34'0 0.0
2018-Jul-19 10:30N 39°15' W 076°34'0 0.0
2018-Jul-19 10:00N 39°15' W 076°34'0 0.0
2018-Jul-19 09:30N 39°15' W 076°34'0 0.0
2018-Jul-19 09:00N 39°15' W 076°34'0 0.0
2018-Jul-19 08:30N 39°15' W 076°34'0 0.0
2018-Jul-19 08:00N 39°15' W 076°34'0 0.0
2018-Jul-19 07:30N 39°15' W 076°34'0 0.0
2018-Jul-19 07:00N 39°15' W 076°34'0 0.0
2018-Jul-19 06:30N 39°15' W 076°34'0 0.0
2018-Jul-19 06:00N 39°15' W 076°34'0 0.0
2018-Jul-19 05:30N 39°15' W 076°34'0 0.0
2018-Jul-19 05:00N 39°15' W 076°34'0 0.0
2018-Jul-19 04:30N 39°15' W 076°34'0 0.0
2018-Jul-19 04:00N 39°15' W 076°34'0 0.0
2018-Jul-19 03:30N 39°15' W 076°34'0 0.0
2018-Jul-19 03:00N 39°15' W 076°34'0 0.1
2018-Jul-19 02:30N 39°15' W 076°34'1 1.2
2018-Jul-19 02:00N 39°15' W 076°34'1 1.4
2018-Jul-19 01:30N 39°15' W 076°34'0 0.0
2018-Jul-19 01:00N 39°15' W 076°34'1 2.1
2018-Jul-19 00:30N 39°15' W 076°33'3 5.8
2018-Jul-19 00:00N 39°13' W 076°32'4 8.4
2018-Jul-18 23:30N 39°11' W 076°27'21 9.1
2018-Jul-18 21:14N 39°23' W 076°05'2 9.2
2018-Jul-18 20:58N 39°25' W 076°03'4 9.0
2018-Jul-18 20:30N 39°27' W 075°59'4 9.0
2018-Jul-18 20:00N 39°30' W 075°55'4 8.7
2018-Jul-18 19:30N 39°32' W 075°49'4 8.5
2018-Jul-18 19:00N 39°33' W 075°44'4 8.1
2018-Jul-18 18:30N 39°33' W 075°39'4 7.7
2018-Jul-18 18:00N 39°34' W 075°34'3 6.2
2018-Jul-18 17:30N 39°37' W 075°35'4 7.9
2018-Jul-18 17:00N 39°40' W 075°32'5 9.7
2018-Jul-18 16:30N 39°45' W 075°30'5 9.9
2018-Jul-18 16:00N 39°48' W 075°25'510.3
2018-Jul-18 15:30N 39°51' W 075°20'510.0
2018-Jul-18 15:00N 39°52' W 075°13'5 9.2
2018-Jul-18 14:30N 39°54' W 075°08'9 8.8
2018-Jul-18 13:30N 40°01' W 075°01'5 9.9
2018-Jul-18 13:00N 40°04' W 074°56'3 0.9
2018-Jul-18 09:57N 40°05' W 074°52'0 0.0
2018-Jul-18 09:15N 40°05' W 074°52'0 0.0
2018-Jul-18 07:57N 40°05' W 074°52'0 0.0
2018-Jul-17 23:18N 40°05' W 074°52'0 0.0
2018-Jul-17 21:51N 40°05' W 074°52'0 0.5
2018-Jul-17 21:30N 40°05' W 074°53'2 4.3
2018-Jul-17 21:00N 40°04' W 074°55'4 7.0
2018-Jul-17 20:30N 40°02' W 074°59'4 7.8
2018-Jul-17 20:00N 40°00' W 075°03'4 8.3
2018-Jul-17 19:30N 39°58' W 075°08'4 8.4
2018-Jul-17 19:00N 39°54' W 075°08'4 7.9
2018-Jul-17 18:30N 39°52' W 075°13'4 7.6
2018-Jul-17 18:00N 39°51' W 075°18'4 7.2
2018-Jul-17 17:30N 39°50' W 075°22'3 6.5
2018-Jul-17 17:00N 39°48' W 075°26'3 6.0
2018-Jul-17 16:30N 39°46' W 075°28'3 5.5
2018-Jul-17 16:00N 39°43' W 075°30'3 5.9
2018-Jul-17 15:30N 39°40' W 075°31'3 5.6
2018-Jul-17 15:00N 39°38' W 075°34'2 5.0
2018-Jul-17 14:30N 39°36' W 075°34'2 4.6
2018-Jul-17 14:00N 39°34' W 075°33'5 9.3
2018-Jul-17 13:30N 39°33' W 075°39'4 8.5
2018-Jul-17 13:00N 39°32' W 075°45'4 7.3
2018-Jul-17 12:30N 39°32' W 075°49'3 6.9
2018-Jul-17 12:00N 39°31' W 075°54'3 6.7
2018-Jul-17 11:30N 39°29' W 075°57'3 6.6
2018-Jul-17 11:00N 39°26' W 076°00'3 6.4
2018-Jul-17 10:30N 39°24' W 076°03'3 6.4
2018-Jul-17 10:00N 39°23' W 076°07'3 6.2
2018-Jul-17 09:30N 39°21' W 076°10'3 5.8
2018-Jul-17 08:58N 39°19' W 076°13'3 6.0
2018-Jul-17 08:29N 39°16' W 076°14'3 6.4
2018-Jul-17 08:00N 39°13' W 076°15'3 6.4
2018-Jul-17 07:30N 39°11' W 076°17'3 5.9
2018-Jul-17 06:56N 39°09' W 076°21'4 6.7
2018-Jul-17 06:24N 39°11' W 076°26'3 6.6
2018-Jul-17 06:00N 39°12' W 076°29'3 6.7
2018-Jul-17 05:30N 39°14' W 076°32'2 4.2
2018-Jul-17 05:00N 39°15' W 076°34'0 0.1
2018-Jul-17 04:30N 39°15' W 076°34'0 0.0
2018-Jul-17 04:00N 39°15' W 076°34'0 0.0
2018-Jul-17 03:30N 39°15' W 076°34'0 0.0
2018-Jul-17 03:00N 39°15' W 076°34'0 0.0
2018-Jul-17 02:30N 39°15' W 076°34'0 0.0
2018-Jul-17 02:00N 39°15' W 076°34'0 0.0
2018-Jul-17 01:30N 39°15' W 076°34'0 0.0
2018-Jul-17 01:00N 39°15' W 076°34'0 0.0
2018-Jul-17 00:27N 39°15' W 076°34'0 0.0
2018-Jul-16 23:30N 39°15' W 076°34'0 0.0
2018-Jul-16 23:00N 39°15' W 076°34'0 0.0
2018-Jul-16 22:30N 39°15' W 076°34'0 0.0
2018-Jul-16 22:00N 39°15' W 076°34'0 0.0
2018-Jul-16 21:30N 39°15' W 076°34'0 0.0
2018-Jul-16 21:00N 39°15' W 076°34'0 0.0
2018-Jul-16 20:30N 39°15' W 076°34'0 0.0
2018-Jul-16 20:00N 39°15' W 076°34'0 0.0
2018-Jul-16 19:30N 39°15' W 076°34'0 0.0
2018-Jul-16 19:00N 39°15' W 076°34'0 0.0
2018-Jul-16 18:30N 39°15' W 076°34'0 0.0
2018-Jul-16 18:00N 39°15' W 076°34'0 0.0
2018-Jul-16 17:30N 39°15' W 076°34'0 0.0
2018-Jul-16 17:00N 39°15' W 076°34'0 0.0
2018-Jul-16 16:30N 39°15' W 076°34'0 0.0
2018-Jul-16 16:00N 39°15' W 076°34'0 0.0
2018-Jul-16 15:30N 39°15' W 076°34'0 0.0
2018-Jul-16 15:00N 39°15' W 076°34'0 0.0
2018-Jul-16 14:30N 39°15' W 076°34'0 0.0
2018-Jul-16 14:00N 39°15' W 076°34'0 0.0
2018-Jul-16 13:30N 39°15' W 076°34'0 0.0
2018-Jul-16 13:00N 39°15' W 076°34'0 0.0
2018-Jul-16 12:30N 39°15' W 076°34'0 0.0
2018-Jul-16 12:00N 39°15' W 076°34'0 0.0
2018-Jul-16 11:30N 39°15' W 076°34'0 0.0
2018-Jul-16 11:00N 39°15' W 076°34'0 0.0
2018-Jul-16 10:30N 39°15' W 076°34'0 0.0
2018-Jul-16 10:00N 39°15' W 076°34'0 0.0
2018-Jul-16 09:30N 39°15' W 076°34'1 1.9
2018-Jul-16 08:59N 39°16' W 076°33'0 0.0
2018-Jul-16 08:29N 39°16' W 076°33'0 0.0
2018-Jul-16 07:59N 39°16' W 076°33'0 0.0
2018-Jul-16 07:29N 39°16' W 076°33'0 0.0
2018-Jul-16 06:59N 39°16' W 076°33'0 0.0
2018-Jul-16 06:30N 39°16' W 076°33'0 0.0
2018-Jul-16 06:00N 39°16' W 076°33'0 0.0
2018-Jul-16 05:30N 39°16' W 076°33'0 0.0
2018-Jul-16 05:00N 39°16' W 076°33'0 0.0
2018-Jul-16 04:30N 39°16' W 076°33'0 0.0
2018-Jul-16 04:00N 39°16' W 076°33'0 0.0
2018-Jul-16 03:30N 39°16' W 076°33'0 0.0
2018-Jul-16 02:59N 39°16' W 076°33'0 0.0
2018-Jul-16 02:30N 39°16' W 076°33'0 0.0
2018-Jul-16 02:00N 39°16' W 076°33'0 0.0
2018-Jul-16 01:30N 39°16' W 076°33'0 0.0
2018-Jul-16 01:00N 39°16' W 076°33'0 0.0
2018-Jul-16 00:29N 39°16' W 076°33'0 0.0
2018-Jul-15 23:59N 39°16' W 076°33'0 0.0
2018-Jul-15 23:30N 39°16' W 076°33'0 0.0
2018-Jul-15 23:00N 39°16' W 076°33'0 0.0
2018-Jul-15 22:29N 39°16' W 076°33'0 0.0
2018-Jul-15 21:59N 39°16' W 076°33'0 0.0
2018-Jul-15 21:29N 39°16' W 076°33'0 0.0
2018-Jul-15 20:59N 39°16' W 076°33'0 0.0
2018-Jul-15 20:29N 39°16' W 076°33'0 0.0
2018-Jul-15 19:59N 39°16' W 076°33'0 0.0
2018-Jul-15 19:29N 39°16' W 076°33'0 0.0
2018-Jul-15 18:59N 39°16' W 076°33'0 0.0
2018-Jul-15 18:29N 39°16' W 076°33'0 0.0
2018-Jul-15 17:59N 39°16' W 076°33'0 0.0
2018-Jul-15 17:29N 39°16' W 076°33'0 0.0
2018-Jul-15 16:59N 39°16' W 076°33'0 0.0
2018-Jul-15 16:29N 39°16' W 076°33'0 0.0
2018-Jul-15 15:59N 39°16' W 076°33'1 2.3
2018-Jul-15 15:29N 39°15' W 076°34'0 0.0
2018-Jul-15 14:59N 39°15' W 076°34'0 0.0
2018-Jul-15 14:29N 39°15' W 076°34'0 0.0
2018-Jul-15 13:59N 39°15' W 076°34'0 0.5
2018-Jul-15 13:31N 39°15' W 076°34'1 1.7
2018-Jul-15 12:59N 39°16' W 076°33'0 0.0
2018-Jul-15 12:29N 39°16' W 076°33'0 0.0
2018-Jul-15 11:59N 39°15' W 076°33'0 0.0
2018-Jul-15 11:29N 39°15' W 076°33'0 0.0
2018-Jul-15 11:00N 39°15' W 076°33'0 0.0
2018-Jul-15 10:23N 39°16' W 076°33'0 0.0
2018-Jul-15 09:59N 39°15' W 076°33'0 0.0
2018-Jul-15 09:20N 39°15' W 076°33'0 0.0
2018-Jul-15 08:59N 39°15' W 076°33'0 0.0
2018-Jul-15 08:29N 39°15' W 076°33'0 0.0
2018-Jul-15 07:59N 39°15' W 076°33'0 0.1
2018-Jul-15 07:29N 39°16' W 076°33'0 0.1
2018-Jul-15 06:59N 39°15' W 076°33'0 0.0
2018-Jul-15 06:29N 39°15' W 076°33'0 0.0
2018-Jul-15 05:59N 39°15' W 076°33'0 0.0
2018-Jul-15 05:29N 39°15' W 076°33'0 0.0
2018-Jul-15 04:59N 39°16' W 076°33'0 0.0
2018-Jul-15 04:29N 39°16' W 076°33'0 0.0
2018-Jul-15 03:59N 39°15' W 076°33'0 0.0
2018-Jul-15 03:30N 39°15' W 076°33'0 0.0
2018-Jul-15 02:59N 39°16' W 076°33'0 0.0
2018-Jul-15 02:29N 39°16' W 076°33'0 0.0
2018-Jul-15 01:59N 39°16' W 076°33'0 0.0
2018-Jul-15 01:29N 39°15' W 076°33'0 0.0
2018-Jul-15 00:59N 39°15' W 076°33'0 0.0
2018-Jul-15 00:29N 39°15' W 076°33'0 0.0
2018-Jul-14 23:59N 39°16' W 076°33'0 0.0
2018-Jul-14 23:29N 39°15' W 076°33'0 0.0
2018-Jul-14 22:59N 39°15' W 076°33'0 0.0
2018-Jul-14 22:29N 39°15' W 076°33'0 0.0
2018-Jul-14 21:59N 39°16' W 076°33'0 0.0
2018-Jul-14 21:29N 39°15' W 076°33'0 0.0
2018-Jul-14 20:59N 39°15' W 076°33'0 0.0
2018-Jul-14 20:29N 39°15' W 076°33'0 0.0
2018-Jul-14 19:59N 39°15' W 076°33'0 0.0
2018-Jul-14 19:29N 39°16' W 076°33'0 0.0
2018-Jul-14 18:59N 39°15' W 076°33'0 0.0
2018-Jul-14 18:29N 39°15' W 076°33'0 0.0
2018-Jul-14 17:59N 39°16' W 076°33'0 0.0
2018-Jul-14 17:29N 39°15' W 076°33'0 0.0
2018-Jul-14 16:59N 39°15' W 076°33'0 0.0
2018-Jul-14 16:29N 39°15' W 076°33'0 0.0
2018-Jul-14 15:59N 39°15' W 076°33'0 0.0
2018-Jul-14 15:29N 39°16' W 076°33'0 0.0
2018-Jul-14 14:59N 39°15' W 076°33'0 0.0
2018-Jul-14 14:29N 39°16' W 076°33'0 0.0
2018-Jul-14 13:29N 39°15' W 076°33'0 0.0
2018-Jul-14 12:59N 39°15' W 076°33'0 0.0
2018-Jul-14 12:29N 39°15' W 076°33'0 0.0
2018-Jul-14 11:59N 39°16' W 076°33'0 0.0
2018-Jul-14 11:29N 39°15' W 076°33'0 0.0
2018-Jul-14 10:56N 39°16' W 076°33'0 0.0
2018-Jul-14 10:29N 39°15' W 076°33'0 0.0
2018-Jul-14 09:59N 39°15' W 076°33'0 0.0
2018-Jul-14 09:29N 39°15' W 076°33'0 0.0
2018-Jul-14 08:59N 39°15' W 076°33'0 0.0
2018-Jul-14 08:29N 39°15' W 076°33'0 0.0
2018-Jul-14 07:56N 39°15' W 076°33'0 0.0
2018-Jul-14 07:26N 39°16' W 076°33'0 0.0
2018-Jul-14 06:59N 39°15' W 076°33'0 0.0
2018-Jul-14 06:29N 39°16' W 076°33'0 0.0
2018-Jul-14 05:59N 39°15' W 076°33'0 0.0
2018-Jul-14 05:29N 39°15' W 076°33'0 0.0
2018-Jul-14 04:59N 39°15' W 076°33'0 0.0
2018-Jul-14 04:29N 39°16' W 076°33'0 0.0
2018-Jul-14 03:59N 39°16' W 076°33'0 0.0
2018-Jul-14 03:29N 39°15' W 076°33'0 0.0
2018-Jul-14 02:59N 39°15' W 076°33'0 0.0
2018-Jul-14 02:29N 39°16' W 076°33'0 0.0
2018-Jul-14 01:59N 39°16' W 076°33'0 0.0
2018-Jul-14 01:29N 39°15' W 076°33'0 0.0
2018-Jul-14 00:59N 39°15' W 076°33'0 0.0
2018-Jul-14 00:29N 39°15' W 076°33'0 0.0
2018-Jul-13 23:59N 39°15' W 076°33'0 0.0
2018-Jul-13 23:29N 39°15' W 076°33'0 0.0
2018-Jul-13 22:59N 39°15' W 076°33'0 0.0
2018-Jul-13 22:29N 39°16' W 076°33'0 0.0
2018-Jul-13 21:59N 39°16' W 076°33'0 0.0
2018-Jul-13 21:29N 39°15' W 076°33'0 0.0
2018-Jul-13 20:59N 39°15' W 076°33'0 0.0
2018-Jul-13 20:29N 39°15' W 076°33'0 0.0
2018-Jul-13 19:59N 39°15' W 076°33'0 0.0
2018-Jul-13 19:29N 39°15' W 076°33'0 0.1
2018-Jul-13 18:59N 39°15' W 076°33'0 0.1
2018-Jul-13 18:29N 39°15' W 076°33'0 0.0
2018-Jul-13 17:59N 39°16' W 076°33'0 0.0
2018-Jul-13 17:29N 39°15' W 076°33'0 0.0
2018-Jul-13 16:59N 39°15' W 076°33'0 0.0
2018-Jul-13 16:29N 39°16' W 076°33'0 0.0
2018-Jul-13 15:59N 39°15' W 076°33'0 0.0
2018-Jul-13 15:29N 39°15' W 076°33'0 0.0
2018-Jul-13 14:59N 39°16' W 076°33'0 0.0
2018-Jul-13 10:34N 39°16' W 076°33'0 0.3
2018-Jul-13 10:28N 39°16' W 076°33'1 2.3
2018-Jul-13 10:00N 39°15' W 076°34'0 0.2
2018-Jul-13 09:30N 39°15' W 076°34'0 0.0
2018-Jul-13 09:00N 39°15' W 076°34'0 0.0
2018-Jul-13 08:22N 39°15' W 076°34'0 0.0
2018-Jul-13 07:57N 39°15' W 076°34'0 0.0
2018-Jul-13 07:27N 39°15' W 076°34'0 0.0
2018-Jul-13 06:51N 39°15' W 076°34'0 0.0
2018-Jul-13 06:30N 39°15' W 076°34'0 0.0
2018-Jul-13 06:00N 39°15' W 076°34'0 0.0
2018-Jul-13 05:27N 39°15' W 076°34'0 0.0
2018-Jul-13 05:00N 39°15' W 076°34'0 0.0
2018-Jul-13 04:30N 39°15' W 076°34'0 0.0
2018-Jul-13 03:57N 39°15' W 076°34'0 0.0
2018-Jul-13 03:30N 39°15' W 076°34'0 0.0
2018-Jul-13 03:00N 39°15' W 076°34'0 0.0
2018-Jul-13 02:27N 39°15' W 076°34'0 0.0
2018-Jul-13 02:00N 39°15' W 076°34'0 0.0
2018-Jul-13 01:30N 39°15' W 076°34'0 0.0
2018-Jul-13 01:00N 39°15' W 076°34'0 0.0
2018-Jul-13 00:30N 39°15' W 076°34'0 0.0
2018-Jul-13 00:00N 39°15' W 076°34'0 0.0
2018-Jul-12 23:27N 39°15' W 076°34'0 0.0
2018-Jul-12 23:00N 39°15' W 076°34'0 0.0
2018-Jul-12 22:30N 39°15' W 076°34'0 0.0
2018-Jul-12 22:00N 39°15' W 076°34'0 0.0
2018-Jul-12 21:30N 39°15' W 076°34'0 0.0
2018-Jul-12 21:00N 39°15' W 076°34'0 0.0
2018-Jul-12 20:30N 39°15' W 076°34'0 0.0
2018-Jul-12 20:00N 39°15' W 076°34'0 0.0
2018-Jul-12 19:30N 39°15' W 076°34'0 0.0
2018-Jul-12 19:00N 39°15' W 076°34'0 0.0
2018-Jul-12 18:30N 39°15' W 076°34'0 0.0
2018-Jul-12 18:00N 39°15' W 076°34'0 0.0
2018-Jul-12 17:27N 39°15' W 076°34'0 0.0
2018-Jul-12 17:00N 39°15' W 076°34'0 0.0
2018-Jul-12 16:30N 39°15' W 076°34'0 0.0
2018-Jul-12 15:57N 39°15' W 076°34'0 0.0
2018-Jul-12 15:30N 39°15' W 076°34'0 0.0
2018-Jul-12 15:00N 39°15' W 076°34'0 0.0
2018-Jul-12 14:30N 39°15' W 076°34'0 0.0
2018-Jul-12 14:00N 39°15' W 076°34'0 0.0
2018-Jul-12 13:30N 39°15' W 076°34'0 0.0
2018-Jul-12 12:57N 39°15' W 076°34'0 0.0
2018-Jul-12 12:30N 39°15' W 076°34'0 0.0
2018-Jul-12 12:00N 39°15' W 076°34'0 0.0
2018-Jul-12 11:30N 39°15' W 076°34'0 0.0
2018-Jul-12 11:00N 39°15' W 076°34'0 0.0
2018-Jul-12 10:30N 39°15' W 076°34'0 0.0
2018-Jul-12 10:00N 39°15' W 076°34'0 0.0
2018-Jul-12 09:30N 39°15' W 076°34'0 0.0
2018-Jul-12 09:00N 39°15' W 076°34'0 0.0
2018-Jul-12 08:30N 39°15' W 076°34'0 0.0
2018-Jul-12 08:00N 39°15' W 076°34'0 0.0
2018-Jul-12 07:30N 39°15' W 076°34'0 0.0
2018-Jul-12 07:00N 39°15' W 076°34'  
Track history (hours):
 
Tides and Currents Weather Stations Pressure Air Temp Water Temp Dewpoint Dewpoint Depression Visibility Wind Speed Wind Dir Waves Ship Positions

Palm Coast

Owner: Dann Marine Towing, LC, Chesapeake City, MD. More information available from US FCC via Universal Licensing System and Coast Guard Vessel Documentation Center.

Last reported at 2018-Jul-22 06:58 UTC. Time now 2018-Jul-22 06:59 UTC.
Position N 39°16' W 076°33'.

; draft 3 m.

Type: Tug. MMSI: 367098270.

Date/timePositionNaut miles runAvg speedWind from/ knotsBaromVisibWave heightAir tempDewpointWater temp
2018-Jul-22 06:58N 39°16' W 076°33'0 0.0
2018-Jul-22 06:28N 39°16' W 076°33'0 0.0
2018-Jul-22 05:58N 39°16' W 076°33'0 0.0
2018-Jul-22 05:28N 39°16' W 076°33'0 0.0
2018-Jul-22 04:58N 39°16' W 076°33'0 0.0
2018-Jul-22 04:28N 39°16' W 076°33'0 0.0
2018-Jul-22 03:58N 39°16' W 076°33'0 0.0
2018-Jul-22 03:28N 39°16' W 076°33'0 0.0
2018-Jul-22 02:58N 39°16' W 076°33'0 0.0
2018-Jul-22 02:28N 39°16' W 076°33'0 0.0
2018-Jul-22 01:58N 39°16' W 076°33'0 0.0
2018-Jul-22 01:28N 39°16' W 076°33'0 0.0
2018-Jul-22 00:58N 39°16' W 076°33'0 0.0
2018-Jul-22 00:28N 39°16' W 076°33'0 0.0
2018-Jul-21 23:58N 39°16' W 076°33'0 0.0
2018-Jul-21 23:28N 39°16' W 076°33'0 0.0
2018-Jul-21 22:58N 39°16' W 076°33'0 0.0
2018-Jul-21 22:28N 39°16' W 076°33'0 0.0
2018-Jul-21 21:58N 39°16' W 076°33'0 0.0
2018-Jul-21 21:22N 39°16' W 076°33'0 0.0
2018-Jul-21 20:58N 39°16' W 076°33'0 0.0
2018-Jul-21 20:28N 39°16' W 076°33'0 0.0
2018-Jul-21 19:58N 39°16' W 076°33'0 0.0
2018-Jul-21 19:28N 39°16' W 076°33'0 0.0
2018-Jul-21 18:58N 39°16' W 076°33'0 0.0
2018-Jul-21 18:28N 39°16' W 076°33'0 0.0
2018-Jul-21 17:58N 39°16' W 076°33'0 0.0
2018-Jul-21 17:28N 39°16' W 076°33'0 0.0
2018-Jul-21 16:58N 39°16' W 076°33'0 0.0
2018-Jul-21 16:28N 39°16' W 076°33'0 0.0
2018-Jul-21 15:58N 39°16' W 076°33'0 0.0
2018-Jul-21 15:28N 39°16' W 076°33'0 0.0
2018-Jul-21 14:58N 39°16' W 076°33'0 0.0
2018-Jul-21 14:28N 39°16' W 076°33'0 0.0
2018-Jul-21 13:58N 39°16' W 076°33'0 0.0
2018-Jul-21 13:28N 39°16' W 076°33'0 0.0
2018-Jul-21 12:58N 39°16' W 076°33'0 0.0
2018-Jul-21 12:25N 39°16' W 076°33'0 0.0
2018-Jul-21 11:58N 39°16' W 076°33'0 0.0
2018-Jul-21 11:29N 39°16' W 076°33'3 5.8
2018-Jul-21 11:00N 39°13' W 076°32'4 8.5
2018-Jul-21 10:30N 39°11' W 076°27'4 8.2
2018-Jul-21 10:00N 39°13' W 076°22'34 7.3
2018-Jul-21 05:19N 39°32' W 075°46'2 7.6
2018-Jul-21 05:00N 39°33' W 075°43'4 7.9
2018-Jul-21 04:30N 39°33' W 075°38'4 7.8
2018-Jul-21 04:00N 39°34' W 075°33'5 8.9
2018-Jul-21 03:28N 39°39' W 075°33'510.4
2018-Jul-21 03:00N 39°43' W 075°30'5 9.6
2018-Jul-21 02:28N 39°48' W 075°26'4 9.6
2018-Jul-21 02:00N 39°50' W 075°22'4 8.2
2018-Jul-21 01:30N 39°51' W 075°16'4 7.9
2018-Jul-21 01:00N 39°53' W 075°12'3 6.6
2018-Jul-21 00:31N 39°54' W 075°08'3 6.7
2018-Jul-21 00:01N 39°57' W 075°08'3 6.5
2018-Jul-20 23:31N 39°59' W 075°04'3 6.1
2018-Jul-20 23:00N 40°01' W 075°02'3 6.4
2018-Jul-20 22:30N 40°03' W 074°58'3 6.3
2018-Jul-20 22:00N 40°04' W 074°54'2 0.2
2018-Jul-20 12:04N 40°05' W 074°52'0 0.2
2018-Jul-20 12:00N 40°05' W 074°52'2 3.3
2018-Jul-20 11:30N 40°04' W 074°54'3 6.8
2018-Jul-20 11:00N 40°03' W 074°58'4 7.8
2018-Jul-20 10:30N 40°01' W 075°03'4 8.4
2018-Jul-20 10:00N 39°58' W 075°07'4 8.5
2018-Jul-20 09:30N 39°54' W 075°08'4 8.2
2018-Jul-20 09:00N 39°52' W 075°13'4 9.0
2018-Jul-20 08:30N 39°51' W 075°18'4 9.0
2018-Jul-20 08:00N 39°49' W 075°24'4 8.6
2018-Jul-20 07:30N 39°46' W 075°28'4 8.3
2018-Jul-20 07:00N 39°43' W 075°31'4 7.9
2018-Jul-20 06:30N 39°39' W 075°33'3 6.8
2018-Jul-20 06:00N 39°36' W 075°34'3 5.3
2018-Jul-20 05:30N 39°33' W 075°36'5 9.0
2018-Jul-20 05:00N 39°33' W 075°41'5 9.0
2018-Jul-20 04:30N 39°32' W 075°47'4 8.3
2018-Jul-20 04:00N 39°31' W 075°53'4 7.7
2018-Jul-20 03:30N 39°29' W 075°57'4 7.6
2018-Jul-20 03:00N 39°26' W 076°00'4 7.4
2018-Jul-20 02:30N 39°24' W 076°03'4 7.4
2018-Jul-20 01:58N 39°22' W 076°08'3 7.0
2018-Jul-20 01:30N 39°20' W 076°12'14 6.8
2018-Jul-19 23:26N 39°11' W 076°26'3 7.2
2018-Jul-19 23:00N 39°12' W 076°30'4 7.5
2018-Jul-19 22:30N 39°14' W 076°33'1 2.4
2018-Jul-19 22:00N 39°15' W 076°34'0 0.0
2018-Jul-19 21:30N 39°15' W 076°34'0 0.0
2018-Jul-19 21:00N 39°15' W 076°34'0 0.0
2018-Jul-19 20:30N 39°15' W 076°34'0 0.1
2018-Jul-19 20:00N 39°15' W 076°34'0 0.0
2018-Jul-19 19:30N 39°15' W 076°34'0 0.0
2018-Jul-19 19:00N 39°15' W 076°34'0 0.0
2018-Jul-19 18:30N 39°15' W 076°34'0 0.0
2018-Jul-19 18:00N 39°15' W 076°34'0 0.0
2018-Jul-19 17:30N 39°15' W 076°34'0 0.0
2018-Jul-19 17:00N 39°15' W 076°34'0 0.0
2018-Jul-19 16:30N 39°15' W 076°34'0 0.0
2018-Jul-19 16:00N 39°15' W 076°34'0 0.0
2018-Jul-19 15:30N 39°15' W 076°34'0 0.0
2018-Jul-19 15:00N 39°15' W 076°34'0 0.0
2018-Jul-19 14:00N 39°15' W 076°34'0 0.0
2018-Jul-19 13:30N 39°15' W 076°34'0 0.0
2018-Jul-19 13:00N 39°15' W 076°34'0 0.0
2018-Jul-19 12:30N 39°15' W 076°34'0 0.0
2018-Jul-19 12:00N 39°15' W 076°34'0 0.0
2018-Jul-19 11:30N 39°15' W 076°34'0 0.0
2018-Jul-19 11:00N 39°15' W 076°34'0 0.0
2018-Jul-19 10:30N 39°15' W 076°34'0 0.0
2018-Jul-19 10:00N 39°15' W 076°34'0 0.0
2018-Jul-19 09:30N 39°15' W 076°34'0 0.0
2018-Jul-19 09:00N 39°15' W 076°34'0 0.0
2018-Jul-19 08:30N 39°15' W 076°34'0 0.0
2018-Jul-19 08:00N 39°15' W 076°34'0 0.0
2018-Jul-19 07:30N 39°15' W 076°34'0 0.0
2018-Jul-19 07:00N 39°15' W 076°34'0 0.0
2018-Jul-19 06:30N 39°15' W 076°34'0 0.0
2018-Jul-19 06:00N 39°15' W 076°34'0 0.0
2018-Jul-19 05:30N 39°15' W 076°34'0 0.0
2018-Jul-19 05:00N 39°15' W 076°34'0 0.0
2018-Jul-19 04:30N 39°15' W 076°34'0 0.0
2018-Jul-19 04:00N 39°15' W 076°34'0 0.0
2018-Jul-19 03:30N 39°15' W 076°34'0 0.0
2018-Jul-19 03:00N 39°15' W 076°34'0 0.1
2018-Jul-19 02:30N 39°15' W 076°34'1 1.2
2018-Jul-19 02:00N 39°15' W 076°34'1 1.4
2018-Jul-19 01:30N 39°15' W 076°34'0 0.0
2018-Jul-19 01:00N 39°15' W 076°34'1 2.1
2018-Jul-19 00:30N 39°15' W 076°33'3 5.8
2018-Jul-19 00:00N 39°13' W 076°32'4 8.4
2018-Jul-18 23:30N 39°11' W 076°27'21 9.1
2018-Jul-18 21:14N 39°23' W 076°05'2 9.2
2018-Jul-18 20:58N 39°25' W 076°03'4 9.0
2018-Jul-18 20:30N 39°27' W 075°59'4 9.0
2018-Jul-18 20:00N 39°30' W 075°55'4 8.7
2018-Jul-18 19:30N 39°32' W 075°49'4 8.5
2018-Jul-18 19:00N 39°33' W 075°44'4 8.1
2018-Jul-18 18:30N 39°33' W 075°39'4 7.7
2018-Jul-18 18:00N 39°34' W 075°34'3 6.2
2018-Jul-18 17:30N 39°37' W 075°35'4 7.9
2018-Jul-18 17:00N 39°40' W 075°32'5 9.7
2018-Jul-18 16:30N 39°45' W 075°30'5 9.9
2018-Jul-18 16:00N 39°48' W 075°25'510.3
2018-Jul-18 15:30N 39°51' W 075°20'510.0
2018-Jul-18 15:00N 39°52' W 075°13'5 9.2
2018-Jul-18 14:30N 39°54' W 075°08'9 8.8
2018-Jul-18 13:30N 40°01' W 075°01'5 9.9
2018-Jul-18 13:00N 40°04' W 074°56'3 0.9
2018-Jul-18 09:57N 40°05' W 074°52'0 0.0
2018-Jul-18 09:15N 40°05' W 074°52'0 0.0
2018-Jul-18 07:57N 40°05' W 074°52'0 0.0
2018-Jul-17 23:18N 40°05' W 074°52'0 0.0
2018-Jul-17 21:51N 40°05' W 074°52'0 0.5
2018-Jul-17 21:30N 40°05' W 074°53'2 4.3
2018-Jul-17 21:00N 40°04' W 074°55'4 7.0
2018-Jul-17 20:30N 40°02' W 074°59'4 7.8
2018-Jul-17 20:00N 40°00' W 075°03'4 8.3
2018-Jul-17 19:30N 39°58' W 075°08'4 8.4
2018-Jul-17 19:00N 39°54' W 075°08'4 7.9
2018-Jul-17 18:30N 39°52' W 075°13'4 7.6
2018-Jul-17 18:00N 39°51' W 075°18'4 7.2
2018-Jul-17 17:30N 39°50' W 075°22'3 6.5
2018-Jul-17 17:00N 39°48' W 075°26'3 6.0
2018-Jul-17 16:30N 39°46' W 075°28'3 5.5
2018-Jul-17 16:00N 39°43' W 075°30'3 5.9
2018-Jul-17 15:30N 39°40' W 075°31'3 5.6
2018-Jul-17 15:00N 39°38' W 075°34'2 5.0
2018-Jul-17 14:30N 39°36' W 075°34'2 4.6
2018-Jul-17 14:00N 39°34' W 075°33'5 9.3
2018-Jul-17 13:30N 39°33' W 075°39'4 8.5
2018-Jul-17 13:00N 39°32' W 075°45'4 7.3
2018-Jul-17 12:30N 39°32' W 075°49'3 6.9
2018-Jul-17 12:00N 39°31' W 075°54'3 6.7
2018-Jul-17 11:30N 39°29' W 075°57'3 6.6
2018-Jul-17 11:00N 39°26' W 076°00'3 6.4
2018-Jul-17 10:30N 39°24' W 076°03'3 6.4
2018-Jul-17 10:00N 39°23' W 076°07'3 6.2
2018-Jul-17 09:30N 39°21' W 076°10'3 5.8
2018-Jul-17 08:58N 39°19' W 076°13'3 6.0
2018-Jul-17 08:29N 39°16' W 076°14'3 6.4
2018-Jul-17 08:00N 39°13' W 076°15'3 6.4
2018-Jul-17 07:30N 39°11' W 076°17'3 5.9
2018-Jul-17 06:56N 39°09' W 076°21'4 6.7
2018-Jul-17 06:24N 39°11' W 076°26'3 6.6
2018-Jul-17 06:00N 39°12' W 076°29'3 6.7
2018-Jul-17 05:30N 39°14' W 076°32'2 4.2
2018-Jul-17 05:00N 39°15' W 076°34'0 0.1
2018-Jul-17 04:30N 39°15' W 076°34'0 0.0
2018-Jul-17 04:00N 39°15' W 076°34'0 0.0
2018-Jul-17 03:30N 39°15' W 076°34'0 0.0
2018-Jul-17 03:00N 39°15' W 076°34'0 0.0
2018-Jul-17 02:30N 39°15' W 076°34'0 0.0
2018-Jul-17 02:00N 39°15' W 076°34'0 0.0
2018-Jul-17 01:30N 39°15' W 076°34'0 0.0
2018-Jul-17 01:00N 39°15' W 076°34'0 0.0
2018-Jul-17 00:27N 39°15' W 076°34'0 0.0
2018-Jul-16 23:30N 39°15' W 076°34'0 0.0
2018-Jul-16 23:00N 39°15' W 076°34'0 0.0
2018-Jul-16 22:30N 39°15' W 076°34'0 0.0
2018-Jul-16 22:00N 39°15' W 076°34'0 0.0
2018-Jul-16 21:30N 39°15' W 076°34'0 0.0
2018-Jul-16 21:00N 39°15' W 076°34'0 0.0
2018-Jul-16 20:30N 39°15' W 076°34'0 0.0
2018-Jul-16 20:00N 39°15' W 076°34'0 0.0
2018-Jul-16 19:30N 39°15' W 076°34'0 0.0
2018-Jul-16 19:00N 39°15' W 076°34'0 0.0
2018-Jul-16 18:30N 39°15' W 076°34'0 0.0
2018-Jul-16 18:00N 39°15' W 076°34'0 0.0
2018-Jul-16 17:30N 39°15' W 076°34'0 0.0
2018-Jul-16 17:00N 39°15' W 076°34'0 0.0
2018-Jul-16 16:30N 39°15' W 076°34'0 0.0
2018-Jul-16 16:00N 39°15' W 076°34'0 0.0
2018-Jul-16 15:30N 39°15' W 076°34'0 0.0
2018-Jul-16 15:00N 39°15' W 076°34'0 0.0
2018-Jul-16 14:30N 39°15' W 076°34'0 0.0
2018-Jul-16 14:00N 39°15' W 076°34'0 0.0
2018-Jul-16 13:30N 39°15' W 076°34'0 0.0
2018-Jul-16 13:00N 39°15' W 076°34'0 0.0
2018-Jul-16 12:30N 39°15' W 076°34'0 0.0
2018-Jul-16 12:00N 39°15' W 076°34'0 0.0
2018-Jul-16 11:30N 39°15' W 076°34'0 0.0
2018-Jul-16 11:00N 39°15' W 076°34'0 0.0
2018-Jul-16 10:30N 39°15' W 076°34'0 0.0
2018-Jul-16 10:00N 39°15' W 076°34'0 0.0
2018-Jul-16 09:30N 39°15' W 076°34'1 1.9
2018-Jul-16 08:59N 39°16' W 076°33'0 0.0
2018-Jul-16 08:29N 39°16' W 076°33'0 0.0
2018-Jul-16 07:59N 39°16' W 076°33'0 0.0
2018-Jul-16 07:29N 39°16' W 076°33'0 0.0
2018-Jul-16 06:59N 39°16' W 076°33'0 0.0
2018-Jul-16 06:30N 39°16' W 076°33'0 0.0
2018-Jul-16 06:00N 39°16' W 076°33'0 0.0
2018-Jul-16 05:30N 39°16' W 076°33'0 0.0
2018-Jul-16 05:00N 39°16' W 076°33'0 0.0
2018-Jul-16 04:30N 39°16' W 076°33'0 0.0
2018-Jul-16 04:00N 39°16' W 076°33'0 0.0
2018-Jul-16 03:30N 39°16' W 076°33'0 0.0
2018-Jul-16 02:59N 39°16' W 076°33'0 0.0
2018-Jul-16 02:30N 39°16' W 076°33'0 0.0
2018-Jul-16 02:00N 39°16' W 076°33'0 0.0
2018-Jul-16 01:30N 39°16' W 076°33'0 0.0
2018-Jul-16 01:00N 39°16' W 076°33'0 0.0
2018-Jul-16 00:29N 39°16' W 076°33'0 0.0
2018-Jul-15 23:59N 39°16' W 076°33'0 0.0
2018-Jul-15 23:30N 39°16' W 076°33'0 0.0
2018-Jul-15 23:00N 39°16' W 076°33'0 0.0
2018-Jul-15 22:29N 39°16' W 076°33'0 0.0
2018-Jul-15 21:59N 39°16' W 076°33'0 0.0
2018-Jul-15 21:29N 39°16' W 076°33'0 0.0
2018-Jul-15 20:59N 39°16' W 076°33'0 0.0
2018-Jul-15 20:29N 39°16' W 076°33'0 0.0
2018-Jul-15 19:59N 39°16' W 076°33'0 0.0
2018-Jul-15 19:29N 39°16' W 076°33'0 0.0
2018-Jul-15 18:59N 39°16' W 076°33'0 0.0
2018-Jul-15 18:29N 39°16' W 076°33'0 0.0
2018-Jul-15 17:59N 39°16' W 076°33'0 0.0
2018-Jul-15 17:29N 39°16' W 076°33'0 0.0
2018-Jul-15 16:59N 39°16' W 076°33'0 0.0
2018-Jul-15 16:29N 39°16' W 076°33'0 0.0
2018-Jul-15 15:59N 39°16' W 076°33'1 2.3
2018-Jul-15 15:29N 39°15' W 076°34'0 0.0
2018-Jul-15 14:59N 39°15' W 076°34'0 0.0
2018-Jul-15 14:29N 39°15' W 076°34'0 0.0
2018-Jul-15 13:59N 39°15' W 076°34'0 0.5
2018-Jul-15 13:31N 39°15' W 076°34'1 1.7
2018-Jul-15 12:59N 39°16' W 076°33'0 0.0
2018-Jul-15 12:29N 39°16' W 076°33'0 0.0
2018-Jul-15 11:59N 39°15' W 076°33'0 0.0
2018-Jul-15 11:29N 39°15' W 076°33'0 0.0
2018-Jul-15 11:00N 39°15' W 076°33'0 0.0
2018-Jul-15 10:23N 39°16' W 076°33'0 0.0
2018-Jul-15 09:59N 39°15' W 076°33'0 0.0
2018-Jul-15 09:20N 39°15' W 076°33'0 0.0
2018-Jul-15 08:59N 39°15' W 076°33'0 0.0
2018-Jul-15 08:29N 39°15' W 076°33'0 0.0
2018-Jul-15 07:59N 39°15' W 076°33'0 0.1
2018-Jul-15 07:29N 39°16' W 076°33'0 0.1
2018-Jul-15 06:59N 39°15' W 076°33'0 0.0
2018-Jul-15 06:29N 39°15' W 076°33'0 0.0
2018-Jul-15 05:59N 39°15' W 076°33'0 0.0
2018-Jul-15 05:29N 39°15' W 076°33'0 0.0
2018-Jul-15 04:59N 39°16' W 076°33'0 0.0
2018-Jul-15 04:29N 39°16' W 076°33'0 0.0
2018-Jul-15 03:59N 39°15' W 076°33'0 0.0
2018-Jul-15 03:30N 39°15' W 076°33'0 0.0
2018-Jul-15 02:59N 39°16' W 076°33'0 0.0
2018-Jul-15 02:29N 39°16' W 076°33'0 0.0
2018-Jul-15 01:59N 39°16' W 076°33'0 0.0
2018-Jul-15 01:29N 39°15' W 076°33'0 0.0
2018-Jul-15 00:59N 39°15' W 076°33'0 0.0
2018-Jul-15 00:29N 39°15' W 076°33'0 0.0
2018-Jul-14 23:59N 39°16' W 076°33'0 0.0
2018-Jul-14 23:29N 39°15' W 076°33'0 0.0
2018-Jul-14 22:59N 39°15' W 076°33'0 0.0
2018-Jul-14 22:29N 39°15' W 076°33'0 0.0
2018-Jul-14 21:59N 39°16' W 076°33'0 0.0
2018-Jul-14 21:29N 39°15' W 076°33'0 0.0
2018-Jul-14 20:59N 39°15' W 076°33'0 0.0
2018-Jul-14 20:29N 39°15' W 076°33'0 0.0
2018-Jul-14 19:59N 39°15' W 076°33'0 0.0
2018-Jul-14 19:29N 39°16' W 076°33'0 0.0
2018-Jul-14 18:59N 39°15' W 076°33'0 0.0
2018-Jul-14 18:29N 39°15' W 076°33'0 0.0
2018-Jul-14 17:59N 39°16' W 076°33'0 0.0
2018-Jul-14 17:29N 39°15' W 076°33'0 0.0
2018-Jul-14 16:59N 39°15' W 076°33'0 0.0
2018-Jul-14 16:29N 39°15' W 076°33'0 0.0
2018-Jul-14 15:59N 39°15' W 076°33'0 0.0
2018-Jul-14 15:29N 39°16' W 076°33'0 0.0
2018-Jul-14 14:59N 39°15' W 076°33'0 0.0
2018-Jul-14 14:29N 39°16' W 076°33'0 0.0
2018-Jul-14 13:29N 39°15' W 076°33'0 0.0
2018-Jul-14 12:59N 39°15' W 076°33'0 0.0
2018-Jul-14 12:29N 39°15' W 076°33'0 0.0
2018-Jul-14 11:59N 39°16' W 076°33'0 0.0
2018-Jul-14 11:29N 39°15' W 076°33'0 0.0
2018-Jul-14 10:56N 39°16' W 076°33'0 0.0
2018-Jul-14 10:29N 39°15' W 076°33'0 0.0
2018-Jul-14 09:59N 39°15' W 076°33'0 0.0
2018-Jul-14 09:29N 39°15' W 076°33'0 0.0
2018-Jul-14 08:59N 39°15' W 076°33'0 0.0
2018-Jul-14 08:29N 39°15' W 076°33'0 0.0
2018-Jul-14 07:56N 39°15' W 076°33'0 0.0
2018-Jul-14 07:26N 39°16' W 076°33'0 0.0
2018-Jul-14 06:59N 39°15' W 076°33'0 0.0
2018-Jul-14 06:29N 39°16' W 076°33'0 0.0
2018-Jul-14 05:59N 39°15' W 076°33'0 0.0
2018-Jul-14 05:29N 39°15' W 076°33'0 0.0
2018-Jul-14 04:59N 39°15' W 076°33'0 0.0
2018-Jul-14 04:29N 39°16' W 076°33'0 0.0
2018-Jul-14 03:59N 39°16' W 076°33'0 0.0
2018-Jul-14 03:29N 39°15' W 076°33'0 0.0
2018-Jul-14 02:59N 39°15' W 076°33'0 0.0
2018-Jul-14 02:29N 39°16' W 076°33'0 0.0
2018-Jul-14 01:59N 39°16' W 076°33'0 0.0
2018-Jul-14 01:29N 39°15' W 076°33'0 0.0
2018-Jul-14 00:59N 39°15' W 076°33'0 0.0
2018-Jul-14 00:29N 39°15' W 076°33'0 0.0
2018-Jul-13 23:59N 39°15' W 076°33'0 0.0
2018-Jul-13 23:29N 39°15' W 076°33'0 0.0
2018-Jul-13 22:59N 39°15' W 076°33'0 0.0
2018-Jul-13 22:29N 39°16' W 076°33'0 0.0
2018-Jul-13 21:59N 39°16' W 076°33'0 0.0
2018-Jul-13 21:29N 39°15' W 076°33'0 0.0
2018-Jul-13 20:59N 39°15' W 076°33'0 0.0
2018-Jul-13 20:29N 39°15' W 076°33'0 0.0
2018-Jul-13 19:59N 39°15' W 076°33'0 0.0
2018-Jul-13 19:29N 39°15' W 076°33'0 0.1
2018-Jul-13 18:59N 39°15' W 076°33'0 0.1
2018-Jul-13 18:29N 39°15' W 076°33'0 0.0
2018-Jul-13 17:59N 39°16' W 076°33'0 0.0
2018-Jul-13 17:29N 39°15' W 076°33'0 0.0
2018-Jul-13 16:59N 39°15' W 076°33'0 0.0
2018-Jul-13 16:29N 39°16' W 076°33'0 0.0
2018-Jul-13 15:59N 39°15' W 076°33'0 0.0
2018-Jul-13 15:29N 39°15' W 076°33'0 0.0
2018-Jul-13 14:59N 39°16' W 076°33'0 0.0
2018-Jul-13 10:34N 39°16' W 076°33'0 0.3
2018-Jul-13 10:28N 39°16' W 076°33'1 2.3
2018-Jul-13 10:00N 39°15' W 076°34'0 0.2
2018-Jul-13 09:30N 39°15' W 076°34'0 0.0
2018-Jul-13 09:00N 39°15' W 076°34'0 0.0
2018-Jul-13 08:22N 39°15' W 076°34'0 0.0
2018-Jul-13 07:57N 39°15' W 076°34'0 0.0
2018-Jul-13 07:27N 39°15' W 076°34'0 0.0
2018-Jul-13 06:51N 39°15' W 076°34'0 0.0
2018-Jul-13 06:30N 39°15' W 076°34'0 0.0
2018-Jul-13 06:00N 39°15' W 076°34'0 0.0
2018-Jul-13 05:27N 39°15' W 076°34'0 0.0
2018-Jul-13 05:00N 39°15' W 076°34'0 0.0
2018-Jul-13 04:30N 39°15' W 076°34'0 0.0
2018-Jul-13 03:57N 39°15' W 076°34'0 0.0
2018-Jul-13 03:30N 39°15' W 076°34'0 0.0
2018-Jul-13 03:00N 39°15' W 076°34'0 0.0
2018-Jul-13 02:27N 39°15' W 076°34'0 0.0
2018-Jul-13 02:00N 39°15' W 076°34'0 0.0
2018-Jul-13 01:30N 39°15' W 076°34'0 0.0
2018-Jul-13 01:00N 39°15' W 076°34'0 0.0
2018-Jul-13 00:30N 39°15' W 076°34'0 0.0
2018-Jul-13 00:00N 39°15' W 076°34'0 0.0
2018-Jul-12 23:27N 39°15' W 076°34'0 0.0
2018-Jul-12 23:00N 39°15' W 076°34'0 0.0
2018-Jul-12 22:30N 39°15' W 076°34'0 0.0
2018-Jul-12 22:00N 39°15' W 076°34'0 0.0
2018-Jul-12 21:30N 39°15' W 076°34'0 0.0
2018-Jul-12 21:00N 39°15' W 076°34'0 0.0
2018-Jul-12 20:30N 39°15' W 076°34'0 0.0
2018-Jul-12 20:00N 39°15' W 076°34'0 0.0
2018-Jul-12 19:30N 39°15' W 076°34'0 0.0
2018-Jul-12 19:00N 39°15' W 076°34'0 0.0
2018-Jul-12 18:30N 39°15' W 076°34'0 0.0
2018-Jul-12 18:00N 39°15' W 076°34'0 0.0
2018-Jul-12 17:27N 39°15' W 076°34'0 0.0
2018-Jul-12 17:00N 39°15' W 076°34'0 0.0
2018-Jul-12 16:30N 39°15' W 076°34'0 0.0
2018-Jul-12 15:57N 39°15' W 076°34'0 0.0
2018-Jul-12 15:30N 39°15' W 076°34'0 0.0
2018-Jul-12 15:00N 39°15' W 076°34'0 0.0
2018-Jul-12 14:30N 39°15' W 076°34'0 0.0
2018-Jul-12 14:00N 39°15' W 076°34'0 0.0
2018-Jul-12 13:30N 39°15' W 076°34'0 0.0
2018-Jul-12 12:57N 39°15' W 076°34'0 0.0
2018-Jul-12 12:30N 39°15' W 076°34'0 0.0
2018-Jul-12 12:00N 39°15' W 076°34'0 0.0
2018-Jul-12 11:30N 39°15' W 076°34'0 0.0
2018-Jul-12 11:00N 39°15' W 076°34'0 0.0
2018-Jul-12 10:30N 39°15' W 076°34'0 0.0
2018-Jul-12 10:00N 39°15' W 076°34'0 0.0
2018-Jul-12 09:30N 39°15' W 076°34'0 0.0
2018-Jul-12 09:00N 39°15' W 076°34'0 0.0
2018-Jul-12 08:30N 39°15' W 076°34'0 0.0
2018-Jul-12 08:00N 39°15' W 076°34'0 0.0
2018-Jul-12 07:30N 39°15' W 076°34'0 0.0
2018-Jul-12 07:00N 39°15' W 076°34'  

Dump ship's entire track history